Time;durP1;ratioP1;P1;durP2;ratioP2;P2;SDS_P1;SDS_P2;PMS_P1;PMS_P2;Temp;Humidity;BMP_temperature;BMP_pressure;BME280_temperature;BME280_humidity;BME280_pressure;Samples;Min_cycle;Max_cycle;Signal;HPM_P1;HPM_P2
2021/03/23 00:00:46;;;;;;;13.77;7.32;;;;;;;2.88;100.00;97018.22;4982523;28;20073;-62
2021/03/23 00:03:34;;;;;;;10.68;7.00;;;;;;;2.95;100.00;97016.97;4944971;28;20070;-62
2021/03/23 00:06:03;;;;;;;16.10;8.50;;;;;;;2.94;100.00;97013.50;4984432;28;20065;-62
2021/03/23 00:08:51;;;;;;;14.95;7.72;;;;;;;2.89;100.00;97018.16;4950519;28;20078;-62
2021/03/23 00:11:22;;;;;;;13.67;7.70;;;;;;;2.98;100.00;97014.19;4988216;28;20070;-62
2021/03/23 00:13:51;;;;;;;15.05;8.00;;;;;;;3.02;100.00;97021.75;4956034;28;21295;-61
2021/03/23 00:16:21;;;;;;;12.02;7.50;;;;;;;2.94;100.00;97018.72;4983820;28;20086;-62
2021/03/23 00:18:49;;;;;;;13.15;7.55;;;;;;;2.99;100.00;97023.69;4943210;28;20080;-62
2021/03/23 00:21:17;;;;;;;12.23;7.38;;;;;;;3.01;100.00;97016.63;4984913;28;20093;-60
2021/03/23 00:23:45;;;;;;;14.27;8.02;;;;;;;3.19;100.00;97022.59;4954630;28;21978;-62
2021/03/23 00:26:15;;;;;;;14.85;8.07;;;;;;;3.12;100.00;97021.25;4992515;28;20104;-62
2021/03/23 00:28:46;;;;;;;13.32;8.13;;;;;;;3.18;100.00;97021.75;4950569;28;20069;-61
2021/03/23 00:31:14;;;;;;;11.23;7.32;;;;;;;3.02;100.00;97023.50;4986613;28;20077;-62
2021/03/23 00:33:56;;;;;;;15.13;8.35;;;;;;;3.09;100.00;97017.88;4957603;28;20058;-61
2021/03/23 00:36:27;;;;;;;18.17;8.63;;;;;;;3.13;100.00;97018.53;4987148;28;20460;-61
2021/03/23 00:38:55;;;;;;;11.30;7.70;;;;;;;3.13;100.00;97025.53;4957158;28;20065;-62
2021/03/23 00:41:24;;;;;;;12.82;8.25;;;;;;;3.16;100.00;97023.59;4988168;28;20101;-62
2021/03/23 00:43:52;;;;;;;15.65;8.55;;;;;;;2.90;100.00;97022.44;4952248;28;20439;-62
2021/03/23 00:46:20;;;;;;;12.98;8.02;;;;;;;2.90;100.00;97026.81;4984706;28;20070;-62
2021/03/23 00:48:48;;;;;;;11.23;7.63;;;;;;;2.83;100.00;97028.91;4949384;28;20050;-62
2021/03/23 00:51:16;;;;;;;15.68;9.20;;;;;;;2.96;100.00;97024.72;4982073;28;20065;-63
2021/03/23 00:53:44;;;;;;;11.55;8.57;;;;;;;2.75;100.00;97024.13;4949234;28;20501;-61
2021/03/23 00:56:12;;;;;;;11.25;8.30;;;;;;;2.63;100.00;97013.50;4988082;28;20057;-61
2021/03/23 00:58:40;;;;;;;16.77;8.68;;;;;;;2.58;100.00;97019.81;4971339;28;20066;-63
2021/03/23 01:01:08;;;;;;;15.23;8.57;;;;;;;2.54;100.00;97009.63;4956911;28;20374;-62
2021/03/23 01:03:35;;;;;;;14.50;8.30;;;;;;;2.53;100.00;97011.38;4972318;28;20074;-62
2021/03/23 01:06:03;;;;;;;14.57;8.32;;;;;;;2.56;100.00;97008.63;4960365;28;20058;-60
2021/03/23 01:08:31;;;;;;;12.50;8.85;;;;;;;2.53;100.00;97006.19;4978123;28;20579;-62
2021/03/23 01:10:59;;;;;;;19.83;8.98;;;;;;;2.66;100.00;97008.13;4953124;28;20058;-61
2021/03/23 01:13:26;;;;;;;14.43;8.85;;;;;;;2.46;100.00;97007.44;4987510;28;20080;-62
2021/03/23 01:15:55;;;;;;;16.67;8.98;;;;;;;2.63;100.00;97013.50;4942529;28;20054;-62
2021/03/23 01:18:23;;;;;;;15.32;9.32;;;;;;;2.41;100.00;97009.44;4985562;28;20066;-62
2021/03/23 01:20:50;;;;;;;14.00;9.02;;;;;;;2.40;100.00;97006.91;4953851;28;20077;-60
2021/03/23 01:23:18;;;;;;;12.95;8.73;;;;;;;2.38;100.00;97005.22;4989075;28;20104;-62
2021/03/23 01:25:46;;;;;;;14.98;9.10;;;;;;;2.46;100.00;97007.44;4954985;28;20068;-63
2021/03/23 01:28:13;;;;;;;25.33;9.93;;;;;;;2.50;100.00;97008.94;4976426;28;20058;-62
2021/03/23 01:30:41;;;;;;;14.60;8.77;;;;;;;2.55;100.00;97004.34;4961932;28;20067;-63
2021/03/23 01:33:09;;;;;;;13.30;8.68;;;;;;;2.56;100.00;97005.19;4988671;28;20518;-62
2021/03/23 01:35:38;;;;;;;16.20;9.82;;;;;;;2.65;100.00;96998.63;4952638;28;23068;-59
2021/03/23 01:38:07;;;;;;;17.75;9.05;;;;;;;2.57;100.00;96999.03;4973951;28;20105;-59
2021/03/23 01:40:36;;;;;;;15.85;9.85;;;;;;;2.64;100.00;96999.56;4953921;28;20069;-61
2021/03/23 01:43:07;;;;;;;17.90;10.55;;;;;;;2.60;100.00;96999.72;4987709;28;20070;-60
2021/03/23 01:45:35;;;;;;;;;;;;;;;2.68;100.00;96996.69;4985521;28;20061;-62
2021/03/23 01:48:05;;;;;;;16.92;9.88;;;;;;;2.46;100.00;96988.38;4980922;28;19960;-60
2021/03/23 01:50:34;;;;;;;19.75;9.95;;;;;;;2.41;100.00;96991.22;4988418;28;20529;-62
2021/03/23 01:53:08;;;;;;;18.58;10.60;;;;;;;2.64;100.00;96994.34;4966024;28;20073;-62
2021/03/23 01:55:36;;;;;;;17.90;9.77;;;;;;;2.62;100.00;96986.63;4988837;28;20070;-62
2021/03/23 01:58:04;;;;;;;17.27;10.50;;;;;;;2.59;100.00;96992.00;4960239;28;20077;-62
2021/03/23 02:00:32;;;;;;;17.88;10.55;;;;;;;2.43;100.00;96991.13;4987972;28;20066;-62
2021/03/23 02:02:59;;;;;;;17.85;10.80;;;;;;;2.54;100.00;96991.38;4938947;28;20062;-61
2021/03/23 02:05:29;;;;;;;17.52;10.43;;;;;;;2.50;100.00;96985.50;4987407;28;20370;-59
2021/03/23 02:07:59;;;;;;;18.08;11.20;;;;;;;2.35;100.00;96981.13;4947955;28;20066;-62
2021/03/23 02:10:27;;;;;;;16.48;10.98;;;;;;;2.39;100.00;96974.84;4981920;28;20632;-61
2021/03/23 02:12:56;;;;;;;21.40;10.30;;;;;;;2.22;100.00;96986.13;4956654;28;20070;-61
2021/03/23 02:15:25;;;;;;;16.35;9.98;;;;;;;2.29;100.00;96987.50;4991713;28;20109;-60
2021/03/23 02:18:09;;;;;;;16.42;11.02;;;;;;;2.36;100.00;96978.44;4959940;28;20480;-62
2021/03/23 02:20:39;;;;;;;18.55;10.80;;;;;;;2.21;100.00;96983.63;4988444;28;20068;-61
2021/03/23 02:23:10;;;;;;;19.92;11.55;;;;;;;2.24;100.00;96983.47;4945140;28;20085;-60
2021/03/23 02:25:37;;;;;;;20.08;11.43;;;;;;;2.21;100.00;96975.81;4986865;28;20073;-62
2021/03/23 02:28:05;;;;;;;17.23;11.25;;;;;;;2.16;100.00;96978.66;4960546;28;20065;-61
2021/03/23 02:30:35;;;;;;;22.27;12.02;;;;;;;2.20;100.00;96976.72;4990362;28;20058;-60
2021/03/23 02:33:03;;;;;;;17.25;10.70;;;;;;;2.08;100.00;96979.06;4932989;28;20062;-61
2021/03/23 02:35:31;;;;;;;21.70;11.27;;;;;;;1.95;100.00;96974.56;4980406;28;20056;-59
2021/03/23 02:38:00;;;;;;;20.75;11.75;;;;;;;2.01;100.00;96972.50;4941750;28;20089;-61
2021/03/23 02:40:29;;;;;;;20.48;12.00;;;;;;;2.12;100.00;96977.97;4990839;28;20523;-60
2021/03/23 02:42:57;;;;;;;21.67;11.68;;;;;;;2.07;100.00;96972.19;4957692;28;20077;-61
2021/03/23 02:45:27;;;;;;;21.52;11.75;;;;;;;1.99;100.00;96968.28;4988586;28;20061;-61
2021/03/23 02:47:55;;;;;;;;;;;;;;;2.17;100.00;96976.88;4985417;28;20066;-59
2021/03/23 02:50:23;;;;;;;20.73;12.32;;;;;;;2.08;100.00;96973.84;4958735;28;19957;-62
2021/03/23 02:52:50;;;;;;;23.90;12.48;;;;;;;2.19;100.00;96973.28;4983029;28;20035;-61
2021/03/23 02:55:18;;;;;;;23.60;12.82;;;;;;;2.18;100.00;96983.78;4951877;28;20084;-59
2021/03/23 02:57:47;;;;;;;22.50;12.85;;;;;;;2.17;100.00;96988.16;4989108;28;20512;-61
2021/03/23 03:00:17;;;;;;;20.35;12.88;;;;;;;2.34;100.00;96989.84;4953404;28;20058;-63
2021/03/23 03:02:44;;;;;;;27.00;13.35;;;;;;;2.25;100.00;96985.97;4988157;28;20472;-62
2021/03/23 03:05:13;;;;;;;21.98;13.02;;;;;;;2.24;100.00;96983.47;4960377;28;20050;-61
2021/03/23 03:07:40;;;;;;;24.63;13.32;;;;;;;2.29;100.00;96982.28;4986006;28;20057;-60
2021/03/23 03:10:09;;;;;;;24.13;13.50;;;;;;;2.41;100.00;96988.63;4938879;28;20058;-61
2021/03/23 03:12:37;;;;;;;22.23;13.20;;;;;;;2.50;100.00;96980.31;4985825;28;20097;-62
2021/03/23 03:15:07;;;;;;;26.63;13.13;;;;;;;2.65;100.00;96989.06;4951842;28;20041;-60
2021/03/23 03:17:35;;;;;;;26.52;13.57;;;;;;;2.48;100.00;96989.97;4985196;28;20090;-61
2021/03/23 03:20:05;;;;;;;25.55;12.75;;;;;;;2.46;100.00;96991.81;4948576;28;20078;-61
2021/03/23 03:22:32;;;;;;;25.35;12.80;;;;;;;2.42;100.00;96998.09;4975528;28;20061;-59
2021/03/23 03:25:00;;;;;;;25.30;12.60;;;;;;;2.27;100.00;97002.38;4954705;28;20571;-59
2021/03/23 03:27:28;;;;;;;22.52;13.68;;;;;;;2.44;100.00;96995.41;4987687;28;20058;-59
2021/03/23 03:29:56;;;;;;;24.83;13.23;;;;;;;2.37;100.00;97002.69;4957967;28;20511;-61
2021/03/23 03:32:24;;;;;;;20.85;13.40;;;;;;;2.39;100.00;97000.88;4989424;28;20065;-54
2021/03/23 03:34:52;;;;;;;23.02;13.48;;;;;;;2.36;100.00;97001.03;4974900;28;20425;-54
2021/03/23 03:37:20;;;;;;;25.77;13.65;;;;;;;2.39;100.00;97003.47;4954575;28;20041;-54
2021/03/23 03:39:47;;;;;;;20.67;12.52;;;;;;;2.25;100.00;97001.59;4987302;28;20074;-57
2021/03/23 03:42:15;;;;;;;23.98;13.93;;;;;;;2.28;100.00;97006.63;4929011;28;20033;-55
2021/03/23 03:44:42;;;;;;;24.17;13.00;;;;;;;2.14;100.00;97009.13;4972830;28;20742;-56
2021/03/23 03:47:11;;;;;;;23.70;13.05;;;;;;;2.46;100.00;97006.59;4953711;28;20066;-57
2021/03/23 03:49:40;;;;;;;25.70;14.80;;;;;;;2.49;100.00;97004.66;4993075;28;20069;-55
2021/03/23 03:52:09;;;;;;;24.17;12.60;;;;;;;2.40;100.00;97001.69;4957027;28;20058;-55
2021/03/23 03:54:37;;;;;;;25.08;14.80;;;;;;;2.46;100.00;97002.22;4985543;28;20038;-57
2021/03/23 03:57:06;;;;;;;27.08;13.35;;;;;;;2.36;100.00;97009.66;4958038;28;20069;-52
2021/03/23 03:59:33;;;;;;;22.92;13.65;;;;;;;2.27;100.00;97010.16;4984056;28;20066;-60
2021/03/23 04:02:01;;;;;;;25.83;13.85;;;;;;;2.34;100.00;97008.06;4953994;28;20086;-61
2021/03/23 04:04:29;;;;;;;28.05;13.95;;;;;;;2.36;100.00;97004.47;4968904;28;20065;-60
2021/03/23 04:06:57;;;;;;;25.17;13.77;;;;;;;2.46;100.00;97004.00;4934673;28;20074;-63
2021/03/23 04:09:25;;;;;;;24.75;13.88;;;;;;;2.24;100.00;97010.31;4978727;28;20073;-61
2021/03/23 04:11:52;;;;;;;25.92;14.07;;;;;;;2.39;100.00;97000.88;4943389;28;20062;-59
2021/03/23 04:14:20;;;;;;;29.00;13.70;;;;;;;2.18;100.00;97010.63;4988146;28;20057;-61
2021/03/23 04:16:47;;;;;;;24.30;12.57;;;;;;;2.19;100.00;97003.66;4957340;28;20453;-62
2021/03/23 04:19:15;;;;;;;30.10;14.60;;;;;;;2.49;100.00;97003.81;4971360;28;20073;-61
2021/03/23 04:21:42;;;;;;;26.25;14.30;;;;;;;2.46;100.00;97004.81;4962660;28;20077;-62
2021/03/23 04:24:11;;;;;;;27.08;14.73;;;;;;;2.37;100.00;97007.91;4985455;28;20070;-62
2021/03/23 04:26:50;;;;;;;24.00;13.60;;;;;;;2.21;100.00;97012.25;4964096;28;20042;-62
2021/03/23 04:29:18;;;;;;;25.05;13.95;;;;;;;2.29;100.00;97003.09;4977885;28;20042;-60
2021/03/23 04:31:46;;;;;;;28.05;15.10;;;;;;;2.09;100.00;97009.34;4969066;28;20119;-62
2021/03/23 04:34:15;;;;;;;24.83;13.77;;;;;;;2.05;100.00;97006.97;4987114;22;20523;-60
2021/03/23 04:37:00;;;;;;;25.25;14.93;;;;;;;2.05;100.00;97012.19;5015280;28;20066;-57
2021/03/23 04:39:28;;;;;;;23.48;13.63;;;;;;;2.12;100.00;97011.78;4997869;28;20069;-55
2021/03/23 04:41:56;;;;;;;26.95;15.10;;;;;;;2.17;100.00;97010.69;5020100;28;20070;-57
2021/03/23 04:44:23;;;;;;;31.05;14.68;;;;;;;2.20;100.00;97013.16;4986688;28;20083;-59
2021/03/23 04:46:51;;;;;;;28.73;14.68;;;;;;;2.18;100.00;97015.84;5020315;28;20400;-58
2021/03/23 04:49:18;;;;;;;27.75;15.40;;;;;;;2.19;100.00;97016.69;4990731;28;20079;-57
2021/03/23 04:51:46;;;;;;;26.40;14.25;;;;;;;2.08;100.00;97025.88;5030449;28;20084;-60
2021/03/23 04:54:13;;;;;;;26.40;14.98;;;;;;;2.27;100.00;97024.91;4996343;28;20069;-60
2021/03/23 04:56:43;;;;;;;23.75;13.57;;;;;;;2.14;100.00;97032.53;5029167;28;20148;-56
2021/03/23 04:59:11;;;;;;;27.85;15.57;;;;;;;2.19;100.00;97033.13;4991141;28;20088;-54
2021/03/23 05:01:39;;;;;;;24.23;14.43;;;;;;;2.09;100.00;97034.50;5019191;28;20469;-57
2021/03/23 05:04:11;;;;;;;31.42;15.77;;;;;;;2.25;100.00;97037.19;4993171;28;20795;-54
2021/03/23 05:06:39;;;;;;;27.67;14.05;;;;;;;2.11;100.00;97037.88;5022666;28;20077;-55
2021/03/23 05:09:06;;;;;;;25.08;14.02;;;;;;;2.11;100.00;97043.94;4983957;28;20065;-56
2021/03/23 05:11:35;;;;;;;25.50;14.43;;;;;;;2.16;100.00;97041.09;5022242;28;20085;-53
2021/03/23 05:14:05;;;;;;;27.45;14.77;;;;;;;2.13;100.00;97042.09;4994280;28;23242;-54
2021/03/23 05:16:33;;;;;;;27.40;15.57;;;;;;;2.10;100.00;97031.84;5025236;28;20062;-55
2021/03/23 05:19:01;;;;;;;27.05;15.90;;;;;;;2.18;100.00;97039.25;4992611;28;20453;-56
2021/03/23 05:21:29;;;;;;;26.35;15.75;;;;;;;2.15;100.00;97042.00;5035552;28;20073;-51
2021/03/23 05:24:00;;;;;;;36.50;16.88;;;;;;;2.32;100.00;97041.97;5033043;28;20644;-52
2021/03/23 05:26:28;;;;;;;30.67;15.75;;;;;;;2.24;100.00;97043.31;5002616;28;20080;-54
2021/03/23 05:28:56;;;;;;;27.13;16.00;;;;;;;2.26;100.00;97039.69;5025577;28;20077;-54
2021/03/23 05:31:24;;;;;;;26.02;16.02;;;;;;;2.22;100.00;97048.59;5005457;28;20061;-57
2021/03/23 05:33:53;;;;;;;27.52;15.65;;;;;;;2.33;100.00;97054.06;5026534;28;20076;-56
2021/03/23 05:36:21;;;;;;;31.65;15.80;;;;;;;2.18;100.00;97057.47;4992187;28;20108;-58
2021/03/23 05:38:49;;;;;;;29.60;15.80;;;;;;;2.25;100.00;97058.84;5023803;28;20065;-55
2021/03/23 05:41:22;;;;;;;30.75;15.73;;;;;;;2.31;100.00;97068.09;4998607;28;20077;-56
2021/03/23 05:44:14;;;;;;;26.05;15.40;;;;;;;2.34;100.00;97074.00;5040135;28;21565;-54
2021/03/23 05:46:42;;;;;;;24.73;13.98;;;;;;;2.15;100.00;97070.63;4994956;28;20076;-56
2021/03/23 05:49:29;;;;;;;28.98;15.07;;;;;;;2.38;100.00;97079.88;5029775;28;20076;-51
2021/03/23 05:52:05;;;;;;;24.88;14.25;;;;;;;2.32;100.00;97072.38;5005608;28;20133;-52
2021/03/23 05:54:43;;;;;;;24.65;14.07;;;;;;;2.49;100.00;97076.72;5024879;28;20164;-55
2021/03/23 05:57:19;;;;;;;28.42;14.93;;;;;;;2.48;100.00;97075.00;4998316;28;20538;-56
2021/03/23 05:59:50;;;;;;;30.77;14.98;;;;;;;2.50;100.00;97081.00;5027069;28;20072;-56
2021/03/23 06:02:23;;;;;;;24.38;13.82;;;;;;;2.42;100.00;97068.38;4998874;28;20314;-55
2021/03/23 06:05:05;;;;;;;31.67;15.80;;;;;;;2.36;100.00;97084.31;5036234;28;20564;-54
2021/03/23 06:07:37;;;;;;;29.52;13.88;;;;;;;2.44;100.00;97081.31;4990771;28;20454;-57
2021/03/23 06:10:15;;;;;;;28.17;14.93;;;;;;;2.36;100.00;97081.69;5027332;28;20065;-54
2021/03/23 06:12:47;;;;;;;26.80;14.00;;;;;;;2.51;100.00;97085.25;4995002;28;20073;-54
2021/03/23 06:15:20;;;;;;;27.33;13.88;;;;;;;2.51;100.00;97090.47;5033621;28;20061;-56
2021/03/23 06:17:53;;;;;;;28.88;13.70;;;;;;;2.59;100.00;97086.56;5007747;28;20061;-52
2021/03/23 06:20:43;;;;;;;27.70;15.48;;;;;;;2.43;100.00;97095.25;5026561;28;20088;-53
2021/03/23 06:23:46;;;;;;;28.03;14.40;;;;;;;2.66;100.00;97088.84;4996281;28;20466;-52
2021/03/23 06:26:22;;;;;;;25.40;14.77;;;;;;;2.85;100.00;97086.94;5031210;28;20554;-55
2021/03/23 06:29:00;;;;;;;30.33;15.90;;;;;;;2.73;100.00;97093.66;4986784;28;20072;-52
2021/03/23 06:31:44;;;;;;;27.45;15.70;;;;;;;2.75;100.00;97094.44;5037431;28;20068;-55
2021/03/23 06:34:15;;;;;;;25.38;13.95;;;;;;;2.83;100.00;97100.06;5022946;28;20463;-53
2021/03/23 06:36:43;;;;;;;26.33;13.88;;;;;;;2.89;100.00;97091.09;5032499;28;20076;-53
2021/03/23 06:39:11;;;;;;;29.08;14.48;;;;;;;2.84;100.00;97096.53;4999318;28;20116;-53
2021/03/23 06:41:51;;;;;;;26.75;15.27;;;;;;;3.10;100.00;97099.50;5026670;28;20080;-56
2021/03/23 06:44:25;;;;;;;25.60;14.02;;;;;;;2.90;100.00;97097.13;5012784;28;20084;-55
2021/03/23 06:46:53;;;;;;;33.15;15.23;;;;;;;2.84;100.00;97096.53;5025349;28;20456;-55
2021/03/23 06:49:26;;;;;;;26.67;14.32;;;;;;;3.10;100.00;97102.13;5000044;28;20080;-57
2021/03/23 06:52:03;;;;;;;26.13;12.48;;;;;;;2.93;100.00;97103.03;5023705;28;20069;-60
2021/03/23 06:54:33;;;;;;;24.05;12.40;;;;;;;3.08;100.00;97107.41;4989574;28;20072;-55
2021/03/23 06:57:03;;;;;;;26.17;14.00;;;;;;;3.15;100.00;97109.69;5035518;28;20065;-56
2021/03/23 06:59:31;;;;;;;;;;;;;;;3.21;100.00;97106.75;4992827;28;20505;-54
2021/03/23 07:02:02;;;;;;;23.63;12.95;;;;;;;3.23;100.00;97104.88;5042375;28;19960;-54
2021/03/23 07:04:34;;;;;;;25.92;14.25;;;;;;;3.33;100.00;97109.50;4995519;28;20072;-57
2021/03/23 07:07:11;;;;;;;27.75;13.80;;;;;;;3.59;100.00;97116.84;5031090;28;20069;-57
2021/03/23 07:09:53;;;;;;;27.17;14.50;;;;;;;3.67;100.00;97112.84;4998377;28;20080;-54
2021/03/23 07:12:37;;;;;;;27.08;14.15;;;;;;;3.85;100.00;97116.19;5022179;28;20070;-56
2021/03/23 07:15:13;;;;;;;24.83;13.90;;;;;;;3.93;100.00;97118.38;4981966;28;20107;-51
2021/03/23 07:17:43;;;;;;;23.77;14.52;;;;;;;3.87;100.00;97116.13;5018406;28;20101;-60
2021/03/23 07:20:23;;;;;;;29.73;14.50;;;;;;;4.07;100.00;97117.59;4990166;28;20671;-59
2021/03/23 07:22:52;;;;;;;25.30;13.40;;;;;;;4.40;100.00;97115.59;5031062;28;20495;-55
2021/03/23 07:25:35;;;;;;;30.52;15.98;;;;;;;4.42;100.00;97116.38;4991884;28;20073;-59
2021/03/23 07:28:23;;;;;;;24.80;13.35;;;;;;;4.23;100.00;97123.59;5021227;28;20069;-53
2021/03/23 07:30:52;;;;;;;22.60;13.38;;;;;;;4.23;100.00;97121.84;5006706;28;20538;-58
2021/03/23 07:33:31;;;;;;;21.13;12.95;;;;;;;4.16;100.00;97124.88;5024893;28;20072;-53
2021/03/23 07:36:00;;;;;;;25.02;12.40;;;;;;;4.34;100.00;97120.38;4999457;28;20065;-52
2021/03/23 07:38:35;;;;;;;24.05;13.52;;;;;;;4.24;100.00;97126.13;5021667;28;20077;-56
2021/03/23 07:41:04;;;;;;;24.10;13.40;;;;;;;4.48;100.00;97116.00;4992325;28;20082;-53
2021/03/23 07:43:40;;;;;;;20.33;12.43;;;;;;;4.63;100.00;97116.03;5032584;28;20061;-55
2021/03/23 07:46:13;;;;;;;22.20;13.23;;;;;;;4.56;100.00;97112.94;4992738;28;20104;-53
2021/03/23 07:48:48;;;;;;;25.58;14.57;;;;;;;4.60;100.00;97116.19;5028372;28;20069;-57
2021/03/23 07:51:30;;;;;;;19.90;12.10;;;;;;;4.87;100.00;97119.78;4986582;28;20066;-52
2021/03/23 07:54:22;;;;;;;20.15;11.27;;;;;;;4.86;100.00;97123.31;5020721;28;20527;-53
2021/03/23 07:56:57;;;;;;;24.02;13.55;;;;;;;4.94;100.00;97123.69;5006785;28;20068;-55
2021/03/23 07:59:34;;;;;;;23.42;12.18;;;;;;;4.92;100.00;97120.34;5022844;28;20735;-56
2021/03/23 08:02:20;;;;;;;22.08;12.13;;;;;;;5.15;100.00;97120.69;4988474;28;20502;-59
2021/03/23 08:04:54;;;;;;;20.58;11.82;;;;;;;4.84;100.00;97129.56;5026134;28;20079;-57
2021/03/23 08:07:28;;;;;;;22.30;12.93;;;;;;;5.02;100.00;97117.16;4991524;28;20084;-57
2021/03/23 08:10:12;;;;;;;17.75;11.02;;;;;;;4.88;100.00;97126.66;5031600;28;20091;-55
2021/03/23 08:12:53;;;;;;;22.75;12.23;;;;;;;5.36;100.00;97129.81;4989954;28;20073;-50
2021/03/23 08:15:35;;;;;;;;;;;;;;;5.46;100.00;97130.06;5050142;28;20460;-57
2021/03/23 08:18:14;;;;;;;23.60;13.70;;;;;;;5.40;100.00;97128.72;4973726;28;19964;-52
2021/03/23 08:21:19;;;;;;;18.85;10.88;;;;;;;5.28;100.00;97132.06;5032020;28;20081;-53
2021/03/23 08:24:00;;;;;;;20.48;11.73;;;;;;;5.20;100.00;97143.00;5024327;28;20068;-59
2021/03/23 08:26:30;;;;;;;;;;;;;;;5.71;100.00;97129.34;5004880;28;24538;-54
2021/03/23 08:29:04;;;;;;;23.83;13.63;;;;;;;6.04;100.00;97136.84;5024913;28;20387;-52
2021/03/23 08:32:02;;;;;;;23.70;14.20;;;;;;;5.98;100.00;97141.66;4998550;28;20095;-54
2021/03/23 08:34:41;;;;;;;22.92;12.25;;;;;;;6.10;100.00;97143.47;5026037;28;20061;-55
2021/03/23 08:37:29;;;;;;;22.83;13.07;;;;;;;6.42;100.00;97141.34;4984809;28;20096;-56
2021/03/23 08:40:07;;;;;;;24.35;14.90;;;;;;;6.65;100.00;97134.56;5016317;28;20507;-56
2021/03/23 08:42:34;;;;;;;25.48;12.90;;;;;;;6.86;100.00;97142.75;4993502;28;20072;-51
2021/03/23 08:45:06;;;;;;;31.92;16.92;;;;;;;6.93;100.00;97140.56;5017512;28;20749;-54
2021/03/23 08:47:35;;;;;;;24.42;14.10;;;;;;;6.58;100.00;97146.41;5002661;28;20555;-55
2021/03/23 08:50:08;;;;;;;26.33;12.90;;;;;;;6.29;100.00;97143.94;5029466;28;20064;-57
2021/03/23 08:52:42;;;;;;;26.25;14.77;;;;;;;6.58;100.00;97142.00;4997469;28;20040;-53
2021/03/23 08:55:42;;;;;;;27.50;14.57;;;;;;;6.73;100.00;97141.91;5035472;28;20101;-55
2021/03/23 08:58:11;;;;;;;;;;;;;;;6.54;100.00;97148.41;4994049;28;20073;-58
2021/03/23 09:00:58;;;;;;;21.55;11.05;;;;;;;6.67;100.00;97156.25;5030469;28;19972;-56
2021/03/23 09:03:53;;;;;;;23.45;13.38;;;;;;;6.83;100.00;97146.41;4985178;28;20061;-54
2021/03/23 09:06:24;;;;;;;22.75;12.90;;;;;;;7.00;100.00;97147.06;5018283;28;20255;-55
2021/03/23 09:08:54;;;;;;;25.25;13.63;;;;;;;6.79;100.00;97149.38;4979204;28;20547;-54
2021/03/23 09:11:58;;;;;;;20.67;12.50;;;;;;;6.45;100.00;97156.03;5005480;28;20081;-55
2021/03/23 09:14:28;;;;;;;23.40;13.77;;;;;;;7.17;100.00;97144.09;4982844;28;20120;-58
2021/03/23 09:17:15;;;;;;;22.95;13.45;;;;;;;7.14;100.00;97139.06;5017289;28;20612;-53
2021/03/23 09:19:54;;;;;;;23.05;10.48;;;;;;;7.02;100.00;97139.91;4993011;28;20440;-54
2021/03/23 09:22:40;;;;;;;20.75;11.43;;;;;;;6.45;100.00;97138.53;5032332;28;20069;-54
2021/03/23 09:25:51;;;;;;;19.02;10.75;;;;;;;6.56;100.00;97140.41;5009925;28;20076;-55
2021/03/23 09:28:50;;;;;;;19.87;11.43;;;;;;;6.42;100.00;97139.56;5020786;28;20077;-56
2021/03/23 09:31:36;;;;;;;19.67;11.48;;;;;;;7.07;100.00;97135.19;4997737;28;20061;-58
2021/03/23 09:34:42;;;;;;;19.23;11.90;;;;;;;7.09;100.00;97130.69;4988317;28;23368;-52
2021/03/23 09:37:30;;;;;;;17.67;11.25;;;;;;;7.95;100.00;97128.03;5027494;28;20068;-55
2021/03/23 09:39:58;;;;;;;15.70;10.00;;;;;;;8.02;100.00;97131.06;4987688;28;20069;-58
2021/03/23 09:42:37;;;;;;;17.77;10.18;;;;;;;8.03;100.00;97122.22;5031412;28;20072;-52
2021/03/23 09:45:34;;;;;;;16.70;10.30;;;;;;;8.92;88.52;97119.03;4976550;28;20405;-56
2021/03/23 09:48:32;;;;;;;18.88;12.40;;;;;;;8.76;90.59;97122.00;5022798;28;20530;-55
2021/03/23 09:51:09;;;;;;;21.08;11.25;;;;;;;8.24;95.02;97127.69;4986197;28;20568;-55
2021/03/23 09:53:55;;;;;;;13.40;8.73;;;;;;;7.62;100.00;97139.19;5033877;28;20387;-56
2021/03/23 09:56:25;;;;;;;21.13;12.75;;;;;;;7.75;100.00;97132.09;4996137;28;20080;-56
2021/03/23 09:58:58;;;;;;;18.45;9.02;;;;;;;7.88;100.00;97125.94;5021499;28;20073;-52
2021/03/23 10:01:26;;;;;;;17.20;9.55;;;;;;;7.73;100.00;97133.16;4998559;28;20069;-53
2021/03/23 10:03:57;;;;;;;18.38;9.20;;;;;;;7.46;100.00;97136.78;5017778;28;20476;-51
2021/03/23 10:06:26;;;;;;;18.77;10.40;;;;;;;7.39;98.07;97125.06;4996426;28;20087;-55
2021/03/23 10:08:58;;;;;;;17.20;8.95;;;;;;;7.49;98.49;97123.47;5011628;28;20072;-58
2021/03/23 10:11:28;;;;;;;15.20;9.43;;;;;;;7.54;100.00;97125.78;5003153;28;20085;-58
2021/03/23 10:13:58;;;;;;;20.73;11.23;;;;;;;7.88;100.00;97120.69;5029421;28;20091;-56
2021/03/23 10:16:29;;;;;;;18.42;10.57;;;;;;;8.02;100.00;97123.19;5002959;28;20061;-53
2021/03/23 10:19:10;;;;;;;19.25;10.95;;;;;;;7.91;100.00;97120.47;5040334;28;20139;-54
2021/03/23 10:21:44;;;;;;;18.05;9.75;;;;;;;8.26;100.00;97113.50;4994999;28;20104;-55
2021/03/23 10:24:15;;;;;;;15.48;9.35;;;;;;;8.54;90.58;97104.41;5031943;28;20065;-53
2021/03/23 10:26:45;;;;;;;17.02;9.07;;;;;;;8.49;82.29;97109.16;4995892;28;20085;-58
2021/03/23 10:29:16;;;;;;;16.15;10.43;;;;;;;7.92;100.00;97124.81;5037586;28;20512;-48
2021/03/23 10:31:46;;;;;;;14.70;8.63;;;;;;;7.42;100.00;97119.59;4996111;28;20091;-54
2021/03/23 10:34:18;;;;;;;19.17;10.45;;;;;;;7.57;100.00;97131.66;5051214;22;20077;-58
2021/03/23 10:36:50;;;;;;;16.02;9.50;;;;;;;7.37;100.00;97122.56;5003517;28;20061;-59
2021/03/23 10:39:32;;;;;;;18.35;9.75;;;;;;;7.45;100.00;97129.88;5020416;28;20065;-62
2021/03/23 10:42:12;;;;;;;16.95;9.23;;;;;;;7.48;100.00;97127.03;4992811;28;20077;-63
2021/03/23 10:44:39;;;;;;;16.38;7.82;;;;;;;7.20;100.00;97128.16;5033680;28;20081;-61
2021/03/23 10:47:07;;;;;;;15.85;8.82;;;;;;;7.26;100.00;97127.72;5006939;28;20065;-60
2021/03/23 10:49:37;;;;;;;16.45;9.60;;;;;;;7.04;100.00;97117.88;5036888;28;20061;-60
2021/03/23 10:52:24;;;;;;;14.55;10.05;;;;;;;7.38;100.00;97126.03;4993512;28;20080;-61
2021/03/23 10:55:11;;;;;;;19.38;9.35;;;;;;;7.47;100.00;97124.53;5017962;28;20471;-62
2021/03/23 10:57:39;;;;;;;18.23;10.60;;;;;;;6.87;100.00;97126.06;5000994;28;20115;-63
2021/03/23 11:00:26;;;;;;;16.58;10.43;;;;;;;6.78;100.00;97124.06;5023509;28;20464;-59
2021/03/23 11:02:54;;;;;;;18.20;10.57;;;;;;;6.69;100.00;97122.94;4987569;28;20072;-63
2021/03/23 11:05:23;;;;;;;13.55;8.70;;;;;;;6.71;100.00;97123.69;5023318;28;20069;-62
2021/03/23 11:07:59;;;;;;;18.88;10.57;;;;;;;6.80;100.00;97119.56;4997689;28;20048;-61
2021/03/23 11:10:30;;;;;;;17.05;10.40;;;;;;;6.74;100.00;97115.59;5026922;28;20061;-61
2021/03/23 11:12:58;;;;;;;18.15;9.73;;;;;;;6.84;100.00;97118.41;5001091;28;20061;-63
2021/03/23 11:15:26;;;;;;;17.23;10.27;;;;;;;6.81;100.00;97118.63;5042199;28;20087;-61
2021/03/23 11:18:20;;;;;;;16.45;10.38;;;;;;;7.21;100.00;97115.88;4991859;28;20049;-63
2021/03/23 11:20:49;;;;;;;18.77;11.00;;;;;;;7.27;100.00;97121.53;5030144;28;20057;-60
2021/03/23 11:23:34;;;;;;;16.70;10.35;;;;;;;7.01;100.00;97120.72;5005549;28;20672;-62
2021/03/23 11:26:03;;;;;;;16.35;9.27;;;;;;;7.10;100.00;97114.84;5038524;28;20064;-58
2021/03/23 11:28:31;;;;;;;18.00;10.30;;;;;;;7.20;100.00;97116.81;4991306;28;20068;-62
2021/03/23 11:31:00;;;;;;;20.88;11.43;;;;;;;7.26;100.00;97119.00;5034042;28;20069;-62
2021/03/23 11:33:29;;;;;;;17.75;10.10;;;;;;;6.65;100.00;97116.22;4993509;28;20061;-61
2021/03/23 11:35:58;;;;;;;17.52;10.32;;;;;;;6.76;100.00;97121.56;5019009;28;20072;-62
2021/03/23 11:38:25;;;;;;;18.02;10.43;;;;;;;6.36;100.00;97121.63;5034929;28;20072;-62
2021/03/23 11:40:55;;;;;;;17.95;10.35;;;;;;;6.60;100.00;97119.13;4987649;28;20205;-60
2021/03/23 11:43:26;;;;;;;15.32;9.10;;;;;;;6.89;100.00;97117.16;5040555;28;20065;-61
2021/03/23 11:45:53;;;;;;;;;;;;;;;6.86;100.00;97119.16;4991263;28;20069;-61
2021/03/23 11:48:22;;;;;;;20.33;8.35;;;;;;;6.95;100.00;97115.06;5032539;28;19960;-61